createdAt,value
2022-09-02T00:00:25.628Z,34.46
2022-09-02T00:02:54.894Z,34.52
2022-09-02T00:05:23.509Z,34.47
2022-09-02T00:07:51.428Z,34.53
2022-09-02T00:10:19.586Z,34.46
2022-09-02T00:12:47.836Z,34.29
2022-09-02T00:15:15.837Z,34.08
2022-09-02T00:17:45.173Z,34.41
2022-09-02T00:20:13.612Z,34.32
2022-09-02T00:22:42.080Z,34.29
2022-09-02T00:25:10.316Z,34.19
2022-09-02T00:27:38.388Z,34.45
2022-09-02T00:30:07.773Z,34.49
2022-09-02T00:32:35.834Z,34.45
2022-09-02T00:35:06.379Z,34.45
2022-09-02T00:37:34.470Z,34.66
2022-09-02T00:40:03.158Z,34.60
2022-09-02T00:42:31.510Z,34.42
2022-09-02T00:44:59.489Z,34.59
2022-09-02T00:47:27.440Z,34.63
2022-09-02T00:49:55.736Z,34.33
2022-09-02T00:52:30.073Z,34.57
2022-09-02T00:55:00.333Z,34.50
2022-09-02T00:57:33.389Z,34.33
2022-09-02T01:00:06.252Z,34.42
2022-09-02T01:02:34.816Z,34.41
2022-09-02T01:05:04.047Z,34.48
2022-09-02T01:07:35.456Z,34.56
2022-09-02T01:10:07.014Z,34.31
2022-09-02T01:12:35.768Z,34.33
2022-09-02T01:15:05.949Z,34.41
2022-09-02T01:17:34.881Z,34.51
2022-09-02T01:20:06.193Z,34.50
2022-09-02T01:22:35.517Z,34.69
2022-09-02T01:25:08.630Z,34.40
2022-09-02T01:27:36.803Z,34.60
2022-09-02T01:30:08.149Z,34.54
2022-09-02T01:32:36.297Z,34.76
2022-09-02T01:35:05.040Z,34.83
2022-09-02T01:37:33.733Z,34.75
2022-09-02T01:40:03.834Z,34.64
2022-09-02T01:42:32.009Z,34.82
2022-09-02T01:45:00.869Z,34.72
2022-09-02T01:47:29.411Z,34.63
2022-09-02T01:49:58.106Z,34.54
2022-09-02T01:52:28.781Z,34.74
2022-09-02T01:54:57.400Z,34.89
2022-09-02T01:57:26.846Z,34.81
2022-09-02T01:59:55.920Z,34.96
2022-09-02T02:02:24.157Z,34.89
2022-09-02T02:04:53.728Z,34.85
2022-09-02T02:07:23.835Z,34.92
2022-09-02T02:09:52.445Z,34.77
2022-09-02T02:12:21.965Z,34.76
2022-09-02T02:14:51.523Z,34.78
2022-09-02T02:17:20.794Z,34.90
2022-09-02T02:19:48.876Z,35.02
2022-09-02T02:22:17.497Z,34.81
2022-09-02T02:24:45.494Z,34.76
2022-09-02T02:27:13.829Z,34.81
2022-09-02T02:29:42.441Z,34.65
2022-09-02T02:32:11.856Z,34.71
2022-09-02T02:34:40.458Z,34.75
2022-09-02T02:37:08.485Z,34.64
2022-09-02T02:39:36.562Z,34.46
2022-09-02T02:42:05.766Z,34.56
2022-09-02T02:44:34.450Z,34.26
2022-09-02T02:47:03.140Z,34.49
2022-09-02T02:49:32.900Z,34.34
2022-09-02T02:52:02.341Z,34.56
2022-09-02T02:54:35.151Z,34.26
2022-09-02T02:57:05.498Z,34.43
2022-09-02T02:59:33.499Z,34.38
2022-09-02T03:02:01.691Z,34.19
2022-09-02T03:04:30.301Z,34.27
2022-09-02T03:07:00.545Z,34.61
2022-09-02T03:09:29.519Z,34.25
2022-09-02T03:11:58.389Z,34.46
2022-09-02T03:14:26.989Z,34.50
2022-09-02T03:16:55.051Z,34.35
2022-09-02T03:19:23.152Z,34.21
2022-09-02T03:21:51.221Z,34.32
2022-09-02T03:24:20.754Z,34.33
2022-09-02T03:26:48.872Z,34.44
2022-09-02T03:29:18.136Z,34.59
2022-09-02T03:31:46.365Z,34.38
2022-09-02T03:34:14.629Z,34.40
2022-09-02T03:36:44.152Z,34.23
2022-09-02T03:39:13.716Z,34.46
2022-09-02T03:41:45.533Z,34.32
2022-09-02T03:44:13.766Z,34.62
2022-09-02T03:46:44.000Z,34.52
2022-09-02T03:49:12.951Z,34.53
2022-09-02T03:51:42.232Z,34.27
2022-09-02T03:54:11.477Z,34.26
2022-09-02T03:56:41.002Z,34.47
2022-09-02T03:59:11.507Z,34.30
2022-09-02T04:01:39.861Z,34.41
2022-09-02T04:04:09.190Z,34.35
2022-09-02T04:06:39.240Z,34.53
2022-09-02T04:09:08.060Z,34.46
2022-09-02T04:11:37.212Z,34.45
2022-09-02T04:14:05.601Z,34.36
2022-09-02T04:16:35.241Z,34.50
2022-09-02T04:19:08.697Z,34.31
2022-09-02T04:21:40.225Z,34.35
2022-09-02T04:24:10.739Z,34.49
2022-09-02T04:26:44.843Z,34.34
2022-09-02T04:29:15.420Z,34.28
2022-09-02T04:31:46.450Z,34.53
2022-09-02T04:34:14.819Z,34.57
2022-09-02T04:36:43.946Z,34.50
2022-09-02T04:39:13.869Z,34.47
2022-09-02T04:41:42.560Z,34.39
2022-09-02T04:44:12.897Z,34.54
2022-09-02T04:46:44.027Z,34.56
2022-09-02T04:49:17.590Z,34.57
2022-09-02T04:51:47.036Z,34.33
2022-09-02T04:54:15.700Z,34.48
2022-09-02T04:56:47.800Z,34.34
2022-09-02T04:59:16.173Z,34.49
2022-09-02T05:01:52.178Z,34.48
2022-09-02T05:04:26.866Z,34.48
2022-09-02T05:06:58.072Z,34.67
2022-09-02T05:09:26.156Z,34.62
2022-09-02T05:11:58.645Z,34.60
2022-09-02T05:14:32.980Z,34.47
2022-09-02T05:17:07.640Z,34.65
2022-09-02T05:19:40.196Z,34.59
2022-09-02T05:22:08.913Z,34.72
2022-09-02T05:24:40.196Z,34.32
2022-09-02T05:27:11.817Z,34.49
2022-09-02T05:29:42.957Z,34.25
2022-09-02T05:32:13.486Z,34.64
2022-09-02T05:34:43.032Z,34.25
2022-09-02T05:37:12.186Z,34.45
2022-09-02T05:39:40.240Z,34.55
2022-09-02T05:42:09.720Z,34.59
2022-09-02T05:44:38.562Z,34.42
2022-09-02T05:47:07.802Z,34.46
2022-09-02T05:49:36.141Z,34.10
2022-09-02T05:52:11.966Z,34.19
2022-09-02T05:54:49.996Z,33.99
2022-09-02T05:57:21.779Z,33.99
2022-09-02T05:59:59.909Z,34.14
2022-09-02T06:02:42.069Z,34.03
2022-09-02T06:05:14.881Z,34.19
2022-09-02T06:07:50.076Z,34.06
2022-09-02T06:10:21.449Z,33.95
2022-09-02T06:12:50.653Z,34.01
2022-09-02T06:15:22.017Z,34.07
2022-09-02T06:17:50.733Z,33.89
2022-09-02T06:20:19.061Z,33.66
2022-09-02T06:22:50.077Z,33.75
2022-09-02T06:25:21.042Z,33.60
2022-09-02T06:27:50.085Z,33.68
2022-09-02T06:30:19.145Z,33.62
2022-09-02T06:32:50.570Z,33.72
2022-09-02T06:35:20.499Z,33.61
2022-09-02T06:37:50.493Z,33.66
2022-09-02T06:40:19.528Z,33.62
2022-09-02T06:42:50.201Z,33.45
2022-09-02T06:45:31.249Z,33.49
2022-09-02T06:48:01.732Z,33.43
2022-09-02T06:50:31.881Z,33.21
2022-09-02T06:53:01.398Z,33.23
2022-09-02T06:55:29.445Z,33.21
2022-09-02T06:57:57.484Z,33.38
2022-09-02T07:00:25.649Z,33.34
2022-09-02T07:03:14.037Z,33.19
2022-09-02T07:05:41.674Z,33.23
2022-09-02T07:08:11.581Z,33.20
2022-09-02T07:10:42.034Z,33.02
2022-09-02T07:13:10.886Z,32.99
2022-09-02T07:15:38.869Z,33.05
2022-09-02T07:18:08.039Z,32.95
2022-09-02T07:20:38.180Z,32.98
2022-09-02T07:23:06.653Z,32.95
2022-09-02T07:25:39.501Z,33.10
2022-09-02T07:28:09.968Z,33.17
2022-09-02T07:30:40.124Z,33.03
2022-09-02T07:33:13.914Z,33.16
2022-09-02T07:35:44.489Z,33.20
2022-09-02T07:38:13.025Z,33.08
2022-09-02T07:40:44.123Z,32.91
2022-09-02T07:43:12.993Z,32.93
2022-09-02T07:45:43.874Z,32.91
2022-09-02T07:48:13.057Z,32.83
2022-09-02T07:50:42.212Z,33.03
2022-09-02T07:53:14.074Z,32.75
2022-09-02T07:55:46.016Z,32.70
2022-09-02T07:58:16.140Z,32.61
2022-09-02T08:00:44.981Z,32.65
2022-09-02T08:03:13.667Z,32.38
2022-09-02T08:05:48.107Z,32.43
2022-09-02T08:08:17.443Z,32.41
2022-09-02T08:10:47.468Z,32.32
2022-09-02T08:13:15.793Z,32.16
2022-09-02T08:15:43.896Z,31.91
2022-09-02T08:18:19.141Z,31.85
2022-09-02T08:20:50.966Z,31.79
2022-09-02T08:23:35.442Z,31.63
2022-09-02T08:26:06.627Z,31.61
2022-09-02T08:28:35.181Z,31.47
2022-09-02T08:31:06.733Z,31.38
2022-09-02T08:33:34.794Z,31.36
2022-09-02T08:36:05.101Z,32.03
2022-09-02T08:38:33.232Z,32.82
2022-09-02T08:41:01.798Z,33.39
2022-09-02T08:43:38.470Z,33.83
2022-09-02T08:46:08.710Z,33.89
2022-09-02T08:48:41.019Z,34.12
2022-09-02T08:51:12.223Z,33.92
2022-09-02T08:53:48.206Z,34.04
2022-09-02T08:56:18.501Z,34.51
2022-09-02T08:58:53.096Z,35.01
2022-09-02T09:01:37.704Z,34.42
2022-09-02T09:04:18.576Z,34.03
2022-09-02T09:07:07.429Z,33.58
2022-09-02T09:09:49.957Z,33.23
2022-09-02T09:12:30.542Z,32.77
2022-09-02T09:15:06.569Z,32.63
2022-09-02T09:17:44.294Z,32.52
2022-09-02T09:20:18.095Z,32.44
2022-09-02T09:22:49.486Z,32.89
2022-09-02T09:25:18.516Z,32.60
2022-09-02T09:27:47.029Z,32.38
2022-09-02T09:30:16.378Z,32.16
2022-09-02T09:32:48.739Z,32.46
2022-09-02T09:35:17.712Z,32.05
2022-09-02T09:37:48.160Z,31.83
2022-09-02T09:40:38.447Z,33.07
2022-09-02T09:43:16.290Z,34.17
2022-09-02T09:45:49.196Z,34.18
2022-09-02T09:48:26.050Z,33.83
2022-09-02T09:51:11.695Z,33.41
2022-09-02T09:53:40.703Z,33.38
2022-09-02T09:56:22.137Z,32.99
2022-09-02T09:58:51.610Z,33.12
2022-09-02T10:01:23.329Z,32.72
2022-09-02T10:03:54.039Z,32.53
2022-09-02T10:06:24.980Z,32.51
2022-09-02T10:08:56.137Z,32.09
2022-09-02T10:11:27.713Z,31.69
2022-09-02T10:14:01.200Z,31.72
2022-09-02T10:16:56.352Z,31.51
2022-09-02T10:19:31.016Z,31.32
2022-09-02T10:22:21.480Z,31.47
2022-09-02T10:25:02.724Z,31.49
2022-09-02T10:27:41.954Z,31.47
2022-09-02T10:30:19.132Z,31.55
2022-09-02T10:33:14.869Z,31.35
2022-09-02T10:35:45.689Z,31.42
2022-09-02T10:38:29.847Z,31.29
2022-09-02T10:41:06.952Z,31.49
2022-09-02T10:43:50.251Z,31.52
2022-09-02T10:46:26.983Z,31.77
2022-09-02T10:49:07.124Z,31.76
2022-09-02T10:51:45.869Z,32.11
2022-09-02T10:54:29.203Z,32.01
2022-09-02T10:57:04.008Z,32.14
2022-09-02T10:59:35.372Z,32.31
2022-09-02T11:02:13.056Z,32.36
2022-09-02T11:04:48.906Z,32.08
2022-09-02T11:07:20.995Z,31.58
2022-09-02T11:09:54.568Z,31.73
2022-09-02T11:12:28.427Z,31.88
2022-09-02T11:15:04.350Z,31.69
2022-09-02T11:17:38.109Z,31.67
2022-09-02T11:20:15.025Z,31.68
2022-09-02T11:22:54.319Z,31.74
2022-09-02T11:25:25.673Z,31.83
2022-09-02T11:28:01.616Z,31.76
2022-09-02T11:30:39.764Z,31.85
2022-09-02T11:33:17.326Z,32.33
2022-09-02T11:35:46.827Z,32.41
2022-09-02T11:38:31.952Z,32.30
2022-09-02T11:41:43.329Z,32.11
2022-09-02T11:44:43.734Z,32.12
2022-09-02T11:47:55.712Z,32.12
2022-09-02T11:50:48.577Z,31.86
2022-09-02T11:53:25.297Z,31.75
2022-09-02T11:55:59.493Z,31.61
2022-09-02T11:58:38.924Z,31.33
2022-09-02T12:01:28.883Z,31.26
2022-09-02T12:07:26.765Z,31.76
2022-09-02T12:10:06.192Z,31.87
2022-09-02T12:13:12.348Z,31.91
2022-09-02T12:15:41.213Z,31.94
2022-09-02T12:18:33.629Z,31.81
2022-09-02T12:21:07.743Z,31.83
2022-09-02T12:24:09.366Z,31.65
2022-09-02T12:27:14.459Z,31.69
2022-09-02T12:29:45.608Z,31.95
2022-09-02T12:33:02.551Z,31.70
2022-09-02T12:35:37.131Z,31.89
2022-09-02T12:38:24.623Z,32.18
2022-09-02T12:41:01.737Z,32.13
2022-09-02T12:43:35.722Z,32.29
2022-09-02T12:46:14.446Z,32.53
2022-09-02T12:48:50.255Z,32.51
2022-09-02T12:51:51.691Z,32.75
2022-09-02T12:54:28.124Z,32.69
2022-09-02T12:56:56.198Z,32.72
2022-09-02T12:59:30.153Z,32.81
2022-09-02T13:02:12.574Z,32.71
2022-09-02T13:04:51.766Z,32.58
2022-09-02T13:07:57.197Z,32.46
2022-09-02T13:11:18.886Z,32.42
2022-09-02T13:14:43.816Z,32.04
2022-09-02T13:17:39.444Z,31.74
2022-09-02T13:20:37.740Z,31.70
2022-09-02T13:23:38.813Z,31.70
2022-09-02T13:26:51.357Z,31.62
2022-09-02T13:30:06.896Z,31.88
2022-09-02T13:32:35.391Z,31.81
2022-09-02T13:35:06.757Z,31.84
2022-09-02T13:37:37.093Z,31.95
2022-09-02T13:40:17.357Z,31.86
2022-09-02T13:42:51.438Z,31.76
2022-09-02T13:45:20.617Z,31.42
2022-09-02T13:47:51.680Z,31.29
2022-09-02T13:50:22.542Z,31.38
2022-09-02T13:55:50.211Z,31.79
2022-09-02T13:58:32.700Z,31.95
2022-09-02T14:01:20.259Z,32.00
2022-09-02T14:03:50.286Z,31.98
2022-09-02T14:06:23.561Z,31.87
2022-09-02T14:08:55.069Z,31.91
2022-09-02T14:11:23.548Z,31.92
2022-09-02T14:13:53.494Z,32.05
2022-09-02T14:16:33.305Z,31.91
2022-09-02T14:19:10.464Z,32.21
2022-09-02T14:21:46.314Z,32.13
2022-09-02T14:24:16.217Z,32.12
2022-09-02T14:26:46.542Z,32.42
2022-09-02T14:29:18.673Z,32.50
2022-09-02T14:31:47.704Z,32.60
2022-09-02T14:34:36.556Z,32.60
2022-09-02T14:37:23.368Z,32.82
2022-09-02T14:40:03.444Z,32.92
2022-09-02T14:42:31.854Z,32.78
2022-09-02T14:45:03.417Z,32.71
2022-09-02T14:47:31.888Z,32.87
2022-09-02T14:50:03.690Z,32.77
2022-09-02T14:52:36.594Z,32.90
2022-09-02T14:55:07.061Z,32.69
2022-09-02T14:57:38.980Z,32.74
2022-09-02T15:00:11.267Z,32.74
2022-09-02T15:02:43.634Z,32.91
2022-09-02T15:05:14.485Z,32.73
2022-09-02T15:07:42.568Z,32.87
2022-09-02T15:10:11.060Z,32.81
2022-09-02T15:12:43.977Z,32.92
2022-09-02T15:15:13.437Z,32.64
2022-09-02T15:17:41.421Z,32.68
2022-09-02T15:20:11.161Z,32.47
2022-09-02T15:22:39.748Z,32.29
2022-09-02T15:25:08.973Z,31.78
2022-09-02T15:27:38.031Z,31.41
2022-09-02T15:30:09.329Z,31.41
2022-09-02T15:32:39.088Z,31.51
2022-09-02T15:35:08.178Z,31.37
2022-09-02T15:37:37.733Z,31.08
2022-09-02T15:40:07.517Z,31.36
2022-09-02T15:42:36.773Z,31.24
2022-09-02T15:45:08.686Z,31.22
2022-09-02T15:47:38.967Z,31.24
2022-09-02T15:50:07.706Z,30.93
2022-09-02T15:52:36.868Z,30.94
2022-09-02T15:55:05.953Z,30.97
2022-09-02T15:57:34.053Z,31.03
2022-09-02T16:00:01.990Z,30.95
2022-09-02T16:02:40.911Z,31.00
2022-09-02T16:05:13.109Z,30.96
2022-09-02T16:07:41.248Z,31.00
2022-09-02T16:10:10.652Z,31.03
2022-09-02T16:12:38.617Z,31.02
2022-09-02T16:15:07.805Z,30.96
2022-09-02T16:17:36.010Z,31.17
2022-09-02T16:20:06.146Z,31.19
2022-09-02T16:22:34.136Z,31.00
2022-09-02T16:25:03.161Z,31.46
2022-09-02T16:27:47.804Z,31.40
2022-09-02T16:30:16.226Z,31.48
2022-09-02T16:32:46.565Z,31.32
2022-09-02T16:35:16.049Z,31.24
2022-09-02T16:37:44.773Z,31.32
2022-09-02T16:40:21.116Z,31.31
2022-09-02T16:42:49.493Z,31.16
2022-09-02T16:45:17.636Z,31.10
2022-09-02T16:47:45.637Z,31.25
2022-09-02T16:50:15.028Z,31.20
2022-09-02T16:52:43.531Z,31.20
2022-09-02T16:55:11.560Z,31.25
2022-09-02T16:57:39.554Z,31.41
2022-09-02T17:00:08.858Z,31.54
2022-09-02T17:02:36.865Z,31.66
2022-09-02T17:05:07.059Z,31.64
2022-09-02T17:07:36.449Z,31.62
2022-09-02T17:10:05.237Z,31.70
2022-09-02T17:12:33.177Z,32.06
2022-09-02T17:15:01.125Z,31.97
2022-09-02T17:17:29.139Z,31.98
2022-09-02T17:19:57.079Z,32.12
2022-09-02T17:22:25.152Z,32.05
2022-09-02T17:24:57.091Z,32.15
2022-09-02T17:27:24.991Z,32.18
2022-09-02T17:29:53.040Z,32.35
2022-09-02T17:32:21.301Z,32.28
2022-09-02T17:34:51.196Z,32.48
2022-09-02T17:37:19.361Z,32.63
2022-09-02T17:39:47.395Z,32.60
2022-09-02T17:42:16.394Z,32.78
2022-09-02T17:44:44.340Z,32.63
2022-09-02T17:47:14.896Z,32.97
2022-09-02T17:49:44.505Z,33.02
2022-09-02T17:52:14.403Z,32.90
2022-09-02T17:54:43.355Z,33.11
2022-09-02T17:57:25.518Z,33.20
2022-09-02T18:00:07.666Z,33.33
2022-09-02T18:03:03.602Z,33.29
2022-09-02T18:05:37.333Z,33.62
2022-09-02T18:08:10.084Z,33.61
2022-09-02T18:10:39.910Z,33.69
2022-09-02T18:13:13.746Z,33.80
2022-09-02T18:15:54.252Z,33.82
2022-09-02T18:18:22.877Z,33.77
2022-09-02T18:20:57.194Z,34.06
2022-09-02T18:23:47.433Z,34.11
2022-09-02T18:26:24.377Z,33.95
2022-09-02T18:29:05.956Z,34.14
2022-09-02T18:31:47.211Z,34.07
2022-09-02T18:34:30.529Z,33.95
2022-09-02T18:37:07.590Z,34.01
2022-09-02T18:39:51.349Z,34.02
2022-09-02T18:42:33.376Z,33.90
2022-09-02T18:45:11.442Z,34.10
2022-09-02T18:47:47.600Z,34.09
2022-09-02T18:50:47.710Z,34.64
2022-09-02T18:53:15.753Z,34.69
2022-09-02T18:55:45.861Z,35.03
2022-09-02T18:58:23.907Z,34.83
2022-09-02T19:01:00.344Z,34.86
2022-09-02T19:03:35.914Z,35.24
2022-09-02T19:06:08.519Z,34.92
2022-09-02T19:08:38.347Z,35.23
2022-09-02T19:11:08.946Z,35.16
2022-09-02T19:13:46.387Z,35.24
2022-09-02T19:16:18.935Z,35.21
2022-09-02T19:18:49.234Z,35.23
2022-09-02T19:21:26.276Z,35.31
2022-09-02T19:23:56.736Z,35.58
2022-09-02T19:26:25.368Z,35.12
2022-09-02T19:28:55.570Z,35.47
2022-09-02T19:31:30.438Z,35.46
2022-09-02T19:34:08.216Z,35.51
2022-09-02T19:36:41.894Z,35.26
2022-09-02T19:39:11.359Z,35.15
2022-09-02T19:41:40.615Z,35.33
2022-09-02T19:44:10.272Z,35.25
2022-09-02T19:49:31.652Z,35.44
2022-09-02T19:52:01.169Z,35.27
2022-09-02T19:54:29.505Z,35.33
2022-09-02T19:56:57.810Z,35.30
2022-09-02T19:59:26.622Z,35.18
2022-09-02T20:01:56.321Z,35.18
2022-09-02T20:04:25.194Z,35.15
2022-09-02T20:06:58.825Z,35.23
2022-09-02T20:09:29.410Z,35.09
2022-09-02T20:11:58.857Z,35.31
2022-09-02T20:14:27.365Z,35.34
2022-09-02T20:17:00.624Z,35.29
2022-09-02T20:19:28.652Z,35.36
2022-09-02T20:21:57.009Z,35.39
2022-09-02T20:24:27.215Z,35.23
2022-09-02T20:27:05.325Z,35.49
2022-09-02T20:29:47.872Z,35.15
2022-09-02T20:32:29.949Z,35.12
2022-09-02T20:35:10.976Z,35.18
2022-09-02T20:37:50.800Z,35.33
2022-09-02T20:40:46.972Z,35.01
2022-09-02T20:43:31.889Z,35.06
2022-09-02T20:46:11.059Z,35.20
2022-09-02T20:48:54.436Z,35.06
2022-09-02T20:51:26.703Z,34.95
2022-09-02T20:54:06.989Z,35.22
2022-09-02T20:56:43.244Z,35.36
2022-09-02T20:59:24.389Z,34.86
2022-09-02T21:01:56.772Z,35.38
2022-09-02T21:04:35.260Z,35.11
2022-09-02T21:07:09.601Z,35.00
2022-09-02T21:09:43.606Z,34.96
2022-09-02T21:12:19.649Z,35.23
2022-09-02T21:14:51.570Z,35.25
2022-09-02T21:17:25.032Z,35.18
2022-09-02T21:20:09.821Z,35.33
2022-09-02T21:22:41.625Z,35.33
2022-09-02T21:25:13.569Z,34.96
2022-09-02T21:27:52.025Z,35.40
2022-09-02T21:30:22.234Z,35.06
2022-09-02T21:32:52.857Z,35.01
2022-09-02T21:35:25.562Z,35.26
2022-09-02T21:38:00.065Z,35.01
2022-09-02T21:40:40.673Z,35.01
2022-09-02T21:43:27.343Z,35.23
2022-09-02T21:46:05.609Z,35.16
2022-09-02T21:48:48.612Z,35.20
2022-09-02T21:51:24.005Z,35.51
2022-09-02T21:54:05.374Z,35.52
2022-09-02T21:56:49.018Z,35.24
2022-09-02T21:59:35.105Z,35.12
2022-09-02T22:02:09.933Z,35.32
2022-09-02T22:04:53.034Z,35.21
2022-09-02T22:07:27.483Z,35.21
2022-09-02T22:10:06.474Z,35.03
2022-09-02T22:12:39.842Z,35.45
2022-09-02T22:15:18.732Z,35.35
2022-09-02T22:17:51.671Z,35.19
2022-09-02T22:20:24.031Z,35.36
2022-09-02T22:22:59.692Z,35.38
2022-09-02T22:25:28.046Z,35.16
2022-09-02T22:28:02.581Z,35.00
2022-09-02T22:30:32.577Z,35.05
2022-09-02T22:33:07.673Z,35.29
2022-09-02T22:35:43.001Z,35.26
2022-09-02T22:38:25.620Z,35.04
2022-09-02T22:40:58.702Z,35.03
2022-09-02T22:43:41.537Z,35.01
2022-09-02T22:46:32.519Z,34.83
2022-09-02T22:49:22.513Z,35.29
2022-09-02T22:52:14.788Z,35.22
2022-09-02T22:54:44.460Z,35.09
2022-09-02T22:57:22.716Z,34.87
2022-09-02T23:00:02.068Z,35.16
2022-09-02T23:02:36.888Z,35.04
2022-09-02T23:05:33.792Z,34.66
2022-09-02T23:08:01.840Z,34.84
2022-09-02T23:10:31.180Z,34.91
2022-09-02T23:13:05.522Z,34.84
2022-09-02T23:15:42.603Z,34.79
2022-09-02T23:18:19.484Z,34.53
2022-09-02T23:20:53.809Z,34.59
2022-09-02T23:23:37.692Z,34.46
2022-09-02T23:26:25.966Z,34.52
2022-09-02T23:29:06.660Z,34.88
2022-09-02T23:31:56.316Z,34.47
2022-09-02T23:34:39.831Z,34.80
2022-09-02T23:37:16.929Z,34.65
2022-09-02T23:40:00.860Z,34.71
2022-09-02T23:42:30.841Z,34.75
2022-09-02T23:45:03.964Z,34.31
2022-09-02T23:47:42.525Z,34.23
2022-09-02T23:50:21.447Z,34.45
2022-09-02T23:52:56.651Z,34.21
2022-09-02T23:55:39.033Z,34.12
2022-09-02T23:58:23.565Z,34.50
